Decoded Metar for KHWV (SHIRLEY in NY, USA) (IATA:HWV) | Meteo·Mobile Aviation Weather
aviador You're here:

KHWV Decoded Metar

SHIRLEY in NY, USA
Report Time2018-10-23 21:56:00
UTC Time2018-10-23 22:57:58
Flight Rules vfr VFR
Wind210° at 04 kt
W.Decomp.*RWY 24: 3.8 kt HW 1.1 kt LCW
RWY 15: 1.1 kt HW 3.8 kt RCW
W.Rank210° ranks 2
Current wind is below 210° avg. (7.9)
Visibility9999 m
Phenomena:N/A
Clouds:N/A
Expected CloudBase > 2,400 ft AGL from Temp-Dew spread
CeilingNone
Temp14°C (ISA -1)
Dew Point08°C (67% RH)
AAT12.1°C
QNH1013 hPa
Density Alt112 ft
Elevation69 ft
Report Wrong Elevation
Raw Report
KHWV 232156Z AUTO 21004KT 10SM CLR 14/08 A2992 RMK AO2 SLP130
T01390083=

Extra information for KHWV:More info

Metar Taf Metar & Taf Last 4 Metars F.Rules Stats Wind Profile Meteogram Temp Stats Airport Information Weather charts Add Link Nearby VenuesMetar ALERT Operation Metar Decoded Social comments

AIRNAV info for KHWV